Terminal Aerodrome Forecast
Issued by NWS Pittsburgh, PA

Current Version | Previous Version | Graphics & Text | Print | Product List | Glossary On
Versions: 1 2 3 4 5 6 7 8 9 10 11 12 13 14 15 16 17 18 19 20 21 22 23 24 25 26 27 28 29 30 31
721
FTUS41 KPBZ 260555 CCA
TAFPIT
TAF COR
KPIT 260555Z 2606/2712 26009KT P6SM VCSH FEW007 OVC035
     FM260700 26008KT P6SM BKN008
     FM261500 27009KT P6SM OVC010
     FM261700 27010KT P6SM BKN020
     FM262000 28010KT P6SM BKN030
     FM270700 13003KT P6SM SCT110=

USA.gov is the U.S. government's official web portal to all federal, state and local government web resources and services.